Time;durP1;ratioP1;P1;durP2;ratioP2;P2;SDS_P1;SDS_P2;PMS_P1;PMS_P2;Temp;Humidity;BMP_temperature;BMP_pressure;BME280_temperature;BME280_humidity;BME280_pressure;Samples;Min_cycle;Max_cycle;Signal;HPM_P1;HPM_P2
2022/05/14 00:01:37;;;;;;;4.93;3.85;;;;;;;23.62;52.29;101209.84;4995302;28;20090;-85
2022/05/14 00:04:04;;;;;;;5.40;3.53;;;;;;;23.61;52.45;101201.88;4996379;28;20491;-86
2022/05/14 00:06:32;;;;;;;6.55;3.53;;;;;;;23.62;52.27;101206.28;4996148;28;20046;-86
2022/05/14 00:09:04;;;;;;;6.03;3.80;;;;;;;23.62;52.13;101217.09;4995828;28;20042;-85
2022/05/14 00:14:19;;;;;;;5.10;3.72;;;;;;;23.61;52.08;101215.38;5010794;28;19933;-85
2022/05/14 00:16:47;;;;;;;5.85;3.58;;;;;;;23.60;52.14;101195.63;4996337;28;20042;-85
2022/05/14 00:19:15;;;;;;;6.15;3.38;;;;;;;23.61;52.00;101204.56;4995683;28;20482;-84
2022/05/14 00:21:42;;;;;;;5.53;4.18;;;;;;;23.61;52.37;101201.88;4995836;28;20042;-85
2022/05/14 00:24:09;;;;;;;6.28;3.53;;;;;;;23.60;52.22;101205.56;4995146;28;20061;-85
2022/05/14 00:26:39;;;;;;;6.55;3.78;;;;;;;23.60;52.25;101210.97;4995811;28;20046;-85
2022/05/14 00:29:08;;;;;;;6.28;3.60;;;;;;;23.59;52.20;101202.03;5010345;28;20077;-84
2022/05/14 00:31:35;;;;;;;5.70;3.60;;;;;;;23.60;52.08;101206.44;4993738;28;20076;-86
2022/05/14 00:34:04;;;;;;;4.22;3.42;;;;;;;23.59;52.30;101215.53;4993563;28;20038;-85
2022/05/14 00:36:32;;;;;;;5.97;3.70;;;;;;;23.59;52.13;101212.84;4995169;28;20046;-85
2022/05/14 00:39:00;;;;;;;4.95;3.22;;;;;;;23.59;52.33;101212.84;5010340;28;20522;-86
2022/05/14 00:41:28;;;;;;;4.40;3.47;;;;;;;23.59;52.25;101202.03;4993906;28;20121;-85
2022/05/14 00:43:59;;;;;;;4.20;3.28;;;;;;;23.59;52.26;101218.25;4994589;28;20053;-84
2022/05/14 00:46:26;;;;;;;4.20;3.38;;;;;;;23.59;52.22;101218.25;4994441;28;20058;-84
2022/05/14 00:48:58;;;;;;;6.30;3.83;;;;;;;23.60;52.05;101228.03;4995149;28;20050;-84
2022/05/14 00:51:34;;;;;;;5.53;3.80;;;;;;;23.59;52.22;101228.22;4993942;28;20050;-85
2022/05/14 00:54:06;;;;;;;4.57;3.40;;;;;;;23.58;52.04;101230.06;5008514;28;20047;-84
2022/05/14 00:56:47;;;;;;;4.45;2.97;;;;;;;23.58;51.91;101224.66;4994877;28;20046;-84
2022/05/14 00:59:18;;;;;;;6.28;3.53;;;;;;;23.58;52.18;101235.47;5009366;28;20054;-85
2022/05/14 01:01:48;;;;;;;7.25;3.15;;;;;;;23.58;51.97;101232.75;4977825;28;20054;-85
2022/05/14 01:04:18;;;;;;;5.00;3.50;;;;;;;23.57;52.36;101231.03;4994432;28;20042;-85
2022/05/14 01:07:07;;;;;;;8.02;3.53;;;;;;;23.58;52.12;101240.03;4992694;28;20050;-86
2022/05/14 01:09:42;;;;;;;5.72;3.38;;;;;;;23.58;51.82;101238.16;4993099;28;20054;-86
2022/05/14 01:12:12;;;;;;;4.63;3.38;;;;;;;23.57;52.21;101233.75;4992929;28;20058;-86
2022/05/14 01:14:40;;;;;;;4.47;2.88;;;;;;;23.57;52.19;101241.84;5010533;28;20066;-86
2022/05/14 01:17:07;;;;;;;7.07;3.28;;;;;;;23.57;52.02;101247.25;4994350;28;20061;-86
2022/05/14 01:19:36;;;;;;;4.13;3.13;;;;;;;23.57;52.04;101247.25;5010135;28;20051;-85
2022/05/14 01:22:03;;;;;;;6.18;3.63;;;;;;;23.57;52.04;101252.66;4995599;28;20046;-85
2022/05/14 01:27:26;;;;;;;3.50;3.20;;;;;;;23.57;51.93;101241.00;4993989;28;20418;-86
2022/05/14 01:29:54;;;;;;;4.63;3.63;;;;;;;23.57;51.83;101249.13;4995528;28;20038;-86
2022/05/14 01:32:21;;;;;;;4.03;2.80;;;;;;;23.57;51.99;101254.53;5009184;28;20065;-86
2022/05/14 01:34:50;;;;;;;5.75;3.28;;;;;;;23.57;51.66;101244.56;4993031;28;20054;-86
2022/05/14 01:37:20;;;;;;;7.47;3.30;;;;;;;23.57;51.92;101243.72;5011281;28;20050;-86
2022/05/14 01:39:48;;;;;;;6.10;3.80;;;;;;;23.56;51.85;101245.56;4997023;28;20050;-86
2022/05/14 01:42:15;;;;;;;5.88;3.47;;;;;;;23.56;51.88;101250.13;5013096;28;20050;-87
2022/05/14 01:44:43;;;;;;;4.93;2.95;;;;;;;23.56;51.93;101256.38;4996904;28;20110;-87
2022/05/14 01:47:11;;;;;;;4.88;3.20;;;;;;;23.57;52.16;101262.63;4998891;28;20050;-87
2022/05/14 01:49:39;;;;;;;4.18;3.00;;;;;;;23.56;52.21;101264.47;4998703;28;20422;-85
2022/05/14 01:52:08;;;;;;;3.45;2.92;;;;;;;23.55;52.17;101260.09;4997223;28;20050;-86
2022/05/14 01:54:35;;;;;;;6.40;3.08;;;;;;;23.56;52.18;101261.78;4997195;28;20062;-85
2022/05/14 01:57:04;;;;;;;5.63;3.83;;;;;;;23.56;52.09;101266.34;4997110;28;20050;-86
2022/05/14 01:59:31;;;;;;;4.57;2.65;;;;;;;23.55;51.74;101265.50;4998131;28;20494;-86
2022/05/14 02:02:00;;;;;;;4.97;3.65;;;;;;;23.55;52.17;101265.50;5013415;28;20054;-86
2022/05/14 02:04:29;;;;;;;3.50;2.92;;;;;;;23.55;52.25;101272.75;4996752;28;20491;-87
2022/05/14 02:06:56;;;;;;;4.55;3.45;;;;;;;23.56;51.85;101269.03;4995500;28;20050;-86
2022/05/14 02:09:25;;;;;;;4.80;3.03;;;;;;;23.55;52.38;101265.50;5011239;28;20050;-86
2022/05/14 02:11:56;;;;;;;4.78;2.83;;;;;;;23.55;52.15;101270.91;4994908;28;20057;-86
2022/05/14 02:14:31;;;;;;;5.82;3.03;;;;;;;23.55;52.13;101270.06;5011207;28;20061;-86
2022/05/14 02:16:59;;;;;;;3.95;2.95;;;;;;;23.55;51.98;101265.50;4995545;28;20058;-86
2022/05/14 02:19:28;;;;;;;4.28;2.75;;;;;;;23.55;52.20;101257.38;5012794;28;20057;-86
2022/05/14 02:21:56;;;;;;;4.82;2.95;;;;;;;23.55;52.05;101253.84;4998304;28;20050;-86
2022/05/14 02:24:23;;;;;;;3.45;2.47;;;;;;;23.55;52.14;101260.09;4997832;28;20151;-86
2022/05/14 02:26:51;;;;;;;3.60;2.85;;;;;;;23.54;51.73;101255.69;4996791;28;20061;-86
2022/05/14 02:29:19;;;;;;;4.60;2.95;;;;;;;23.54;52.22;101250.28;4996044;28;20069;-84
2022/05/14 02:31:47;;;;;;;4.93;3.08;;;;;;;23.55;52.09;101259.25;5012297;28;20054;-83
2022/05/14 02:34:14;;;;;;;4.82;3.10;;;;;;;23.55;52.30;101259.25;4997397;28;20042;-83
2022/05/14 02:36:41;;;;;;;6.88;3.13;;;;;;;23.54;51.98;101263.78;4996635;28;20398;-84
2022/05/14 02:39:09;;;;;;;4.82;3.13;;;;;;;23.54;51.78;101261.09;5012384;28;20077;-85
2022/05/14 02:41:37;;;;;;;4.13;3.17;;;;;;;23.54;51.99;101257.53;4996652;28;20057;-85
2022/05/14 02:44:04;;;;;;;3.60;2.60;;;;;;;23.54;51.96;101247.59;4996090;28;20058;-85
2022/05/14 02:46:32;;;;;;;3.13;2.80;;;;;;;23.54;51.90;101247.59;5012272;28;20058;-86
2022/05/14 02:48:59;;;;;;;5.65;3.10;;;;;;;23.54;52.01;101255.69;4996865;28;20533;-85
2022/05/14 02:51:27;;;;;;;5.13;3.08;;;;;;;23.55;52.15;101253.84;5011347;28;20053;-85
2022/05/14 02:53:55;;;;;;;3.53;2.70;;;;;;;23.54;52.11;101254.84;4996987;28;20058;-89
2022/05/14 02:56:22;;;;;;;4.72;2.80;;;;;;;23.55;51.88;101259.25;4997451;28;20042;-84
2022/05/14 02:59:08;;;;;;;4.88;2.95;;;;;;;23.54;51.72;101252.13;4994860;28;20102;-84
2022/05/14 03:01:47;;;;;;;6.45;3.08;;;;;;;23.55;51.57;101251.13;4980463;28;20054;-86
2022/05/14 03:04:22;;;;;;;4.35;2.70;;;;;;;23.55;52.06;101256.53;4996992;28;20046;-85
2022/05/14 03:06:51;;;;;;;5.30;3.67;;;;;;;23.56;51.85;101255.53;4995054;28;20046;-83
2022/05/14 03:09:19;;;;;;;6.88;3.20;;;;;;;23.56;51.55;101258.22;4995379;28;20403;-84
2022/05/14 03:11:47;;;;;;;6.53;3.25;;;;;;;23.55;52.10;101260.09;4996582;28;20049;-85
2022/05/14 03:14:15;;;;;;;3.50;2.95;;;;;;;23.55;52.07;101264.66;4995388;28;20054;-85
2022/05/14 03:16:43;;;;;;;4.43;2.80;;;;;;;23.55;52.34;101261.94;4995048;28;20387;-84
2022/05/14 03:19:12;;;;;;;6.63;2.95;;;;;;;23.55;51.90;101270.06;4995535;28;20049;-84
2022/05/14 03:21:40;;;;;;;4.00;2.90;;;;;;;23.54;52.01;101263.78;4995376;28;20103;-84
2022/05/14 03:24:08;;;;;;;3.92;2.83;;;;;;;23.55;52.10;101264.66;4995828;28;20061;-85
2022/05/14 03:26:41;;;;;;;3.65;2.85;;;;;;;23.54;52.09;101261.09;4997087;28;20375;-88
2022/05/14 03:29:09;;;;;;;3.58;2.53;;;;;;;23.55;52.01;101261.94;4997331;28;20043;-88
2022/05/14 03:31:37;;;;;;;4.38;2.80;;;;;;;23.54;52.12;101258.38;4997473;28;20051;-88
2022/05/14 03:34:06;;;;;;;4.65;2.63;;;;;;;23.54;52.11;101260.25;5011712;28;20137;-86
2022/05/14 03:36:33;;;;;;;5.55;3.17;;;;;;;23.54;52.22;101258.38;4997014;28;20474;-85
2022/05/14 03:39:01;;;;;;;5.38;2.95;;;;;;;23.53;52.39;101261.22;4995159;28;20058;-86
2022/05/14 03:41:28;;;;;;;4.10;3.08;;;;;;;23.53;52.09;101264.78;4995349;28;20525;-85
2022/05/14 03:43:57;;;;;;;6.32;3.08;;;;;;;23.53;52.10;101267.47;4995251;28;20062;-86
2022/05/14 03:46:25;;;;;;;4.20;2.67;;;;;;;23.53;52.32;101270.19;4996352;28;20042;-85
2022/05/14 03:48:52;;;;;;;4.32;2.75;;;;;;;23.54;51.93;101277.31;4995097;28;20058;-85
2022/05/14 03:51:20;;;;;;;5.03;2.65;;;;;;;23.53;52.17;101281.00;4978651;28;20058;-85
2022/05/14 03:53:48;;;;;;;3.90;3.33;;;;;;;23.52;52.08;101282.00;4995539;28;20077;-86
2022/05/14 03:56:15;;;;;;;5.30;2.90;;;;;;;23.52;52.03;101286.56;4995339;28;20058;-86
2022/05/14 03:58:43;;;;;;;5.10;2.70;;;;;;;23.52;51.86;101286.56;4994740;28;20062;-87
2022/05/14 04:01:11;;;;;;;5.07;3.30;;;;;;;23.52;51.75;101300.06;4995673;28;20058;-86
2022/05/14 04:03:40;;;;;;;4.38;3.20;;;;;;;23.51;51.53;101291.09;4995567;28;20058;-86
2022/05/14 04:06:08;;;;;;;4.97;3.45;;;;;;;23.51;51.61;101293.81;4996831;28;20049;-85
2022/05/14 04:08:36;;;;;;;4.18;3.10;;;;;;;23.51;51.45;101284.84;4996144;28;20406;-86
2022/05/14 04:11:04;;;;;;;7.03;2.83;;;;;;;23.51;51.79;101284.84;4994184;28;20077;-86
2022/05/14 04:13:32;;;;;;;5.18;3.00;;;;;;;23.51;51.73;101282.16;5010275;28;20053;-86
2022/05/14 04:16:00;;;;;;;4.70;3.03;;;;;;;23.50;51.64;101284.00;4994356;28;20422;-86
2022/05/14 04:18:28;;;;;;;4.70;2.55;;;;;;;23.50;51.63;101284.00;4993199;28;20061;-86
2022/05/14 04:20:58;;;;;;;4.80;2.72;;;;;;;23.49;51.66;101295.78;4994109;28;20046;-85
2022/05/14 04:23:28;;;;;;;5.57;2.90;;;;;;;23.51;51.75;101290.25;4993446;28;20061;-85
2022/05/14 04:25:58;;;;;;;4.50;3.10;;;;;;;23.50;51.38;101288.53;4993252;28;20410;-85
2022/05/14 04:28:27;;;;;;;4.00;2.65;;;;;;;23.49;51.57;101306.59;4994901;28;20061;-85
2022/05/14 04:30:56;;;;;;;3.88;2.45;;;;;;;23.49;51.45;101309.31;4994460;28;20356;-85
2022/05/14 04:33:26;;;;;;;4.30;3.05;;;;;;;23.50;51.22;101312.84;4994607;28;20054;-85
2022/05/14 04:35:54;;;;;;;4.82;3.22;;;;;;;23.50;51.36;101315.56;5009958;28;20497;-86
2022/05/14 04:38:22;;;;;;;3.72;2.70;;;;;;;23.49;51.27;101309.31;4994657;28;20050;-86
2022/05/14 04:40:49;;;;;;;4.25;2.90;;;;;;;23.48;51.41;101318.41;4992688;28;20061;-87
2022/05/14 04:43:17;;;;;;;5.70;2.80;;;;;;;23.50;51.22;101326.38;4993404;28;20414;-88
2022/05/14 04:45:46;;;;;;;4.43;2.95;;;;;;;23.48;51.37;101317.56;4994736;28;20053;-88
2022/05/14 04:48:14;;;;;;;3.88;2.90;;;;;;;23.49;51.36;101321.97;4995856;28;20054;-87
2022/05/14 04:50:44;;;;;;;4.72;2.38;;;;;;;23.48;51.43;101318.41;4994703;28;20054;-87
2022/05/14 04:53:12;;;;;;;5.40;3.10;;;;;;;23.49;51.14;101320.13;4996170;28;20054;-87
2022/05/14 04:55:39;;;;;;;4.40;2.80;;;;;;;23.48;51.09;101318.41;4994228;28;20046;-87
2022/05/14 04:58:08;;;;;;;4.65;2.45;;;;;;;23.48;51.47;101321.13;4994717;28;20054;-86
2022/05/14 05:00:37;;;;;;;4.95;3.40;;;;;;;23.47;51.18;101319.44;4994524;28;20061;-87
2022/05/14 05:03:17;;;;;;;3.75;2.50;;;;;;;23.47;51.30;101327.53;4995211;28;20387;-87
2022/05/14 05:05:52;;;;;;;5.82;3.17;;;;;;;23.48;51.37;101334.63;4994439;28;20050;-88
2022/05/14 05:08:21;;;;;;;4.30;2.85;;;;;;;23.48;51.04;101341.91;4994531;28;20050;-86
2022/05/14 05:10:49;;;;;;;4.50;2.70;;;;;;;23.48;51.15;101336.50;4997275;28;20486;-89
2022/05/14 05:13:20;;;;;;;5.55;3.03;;;;;;;23.47;51.23;101332.94;4999775;28;20069;-88
2022/05/14 05:15:48;;;;;;;4.47;3.10;;;;;;;23.47;51.15;101338.34;4999648;28;20061;-88
2022/05/14 05:18:16;;;;;;;6.28;2.80;;;;;;;23.47;51.04;101348.31;4998397;28;20050;-88
2022/05/14 05:20:45;;;;;;;4.55;2.55;;;;;;;23.47;51.00;101338.34;4997169;28;20433;-88
2022/05/14 05:23:14;;;;;;;3.55;2.90;;;;;;;23.46;51.07;101344.75;5013273;28;20383;-88
2022/05/14 05:25:42;;;;;;;5.13;2.85;;;;;;;23.45;51.44;101343.88;4997628;28;20058;-88
2022/05/14 05:28:10;;;;;;;6.18;3.53;;;;;;;23.47;51.15;101351.84;4997551;28;20402;-88
2022/05/14 05:30:37;;;;;;;5.82;3.10;;;;;;;23.47;51.24;101351.84;4997383;28;20053;-86
2022/05/14 05:33:13;;;;;;;4.28;2.55;;;;;;;23.46;51.10;101352.88;4997528;28;20050;-87
2022/05/14 05:35:41;;;;;;;4.03;2.53;;;;;;;23.47;51.11;101353.72;4997819;28;20046;-86
2022/05/14 05:38:08;;;;;;;5.20;2.70;;;;;;;23.45;51.15;101345.72;4996085;28;20547;-86
2022/05/14 05:40:36;;;;;;;4.15;2.80;;;;;;;23.47;51.58;101357.25;4995929;28;20498;-86
2022/05/14 05:43:05;;;;;;;6.85;3.03;;;;;;;23.46;51.41;101366.38;4996568;28;20122;-86
2022/05/14 05:45:34;;;;;;;3.38;2.63;;;;;;;23.47;51.36;101361.81;4997961;28;20062;-85
2022/05/14 05:48:01;;;;;;;4.05;2.80;;;;;;;23.46;51.37;101355.56;4998730;28;20042;-87
2022/05/14 05:50:29;;;;;;;4.55;2.70;;;;;;;23.46;51.59;101363.66;4997313;28;20494;-86
2022/05/14 05:52:56;;;;;;;4.18;2.58;;;;;;;23.47;51.49;101356.41;4998475;28;20062;-86
2022/05/14 05:58:09;;;;;;;5.57;2.90;;;;;;;23.47;51.74;101365.38;4999314;28;20053;-87
2022/05/14 06:00:37;;;;;;;5.93;3.08;;;;;;;23.46;51.39;101360.97;4999147;28;20050;-86
2022/05/14 06:03:04;;;;;;;5.57;2.90;;;;;;;23.46;51.41;101360.97;4998565;28;20040;-88
2022/05/14 06:05:38;;;;;;;5.05;2.63;;;;;;;23.47;50.95;101359.97;4994880;28;20057;-86
2022/05/14 06:08:10;;;;;;;6.25;3.22;;;;;;;23.47;51.49;101368.06;4997345;28;20482;-86
2022/05/14 06:10:37;;;;;;;8.32;2.78;;;;;;;23.47;51.76;101365.38;4998956;28;20493;-85
2022/05/14 06:13:05;;;;;;;5.88;2.65;;;;;;;23.47;51.65;101365.38;4999276;28;20494;-87
2022/05/14 06:15:32;;;;;;;6.75;3.25;;;;;;;23.48;51.44;101366.22;4998033;28;20046;-82
2022/05/14 06:18:01;;;;;;;7.82;2.80;;;;;;;23.48;51.14;101368.91;4995989;28;20403;-86
2022/05/14 06:20:30;;;;;;;6.68;3.05;;;;;;;23.49;51.43;101362.50;4996438;28;20042;-86
2022/05/14 06:23:01;;;;;;;4.80;2.53;;;;;;;23.50;51.54;101375.00;4996672;28;20050;-85
2022/05/14 06:25:29;;;;;;;8.35;3.75;;;;;;;23.49;51.54;101367.91;4996178;28;20054;-85
2022/05/14 06:27:56;;;;;;;6.22;3.08;;;;;;;23.49;51.62;101367.91;4994582;28;20046;-87
2022/05/14 06:30:23;;;;;;;6.25;3.00;;;;;;;23.48;51.62;101380.56;5010850;28;20053;-87
2022/05/14 06:32:51;;;;;;;4.97;2.83;;;;;;;23.49;51.83;101373.31;4994911;28;20057;-87
2022/05/14 06:35:18;;;;;;;4.53;2.75;;;;;;;23.49;51.58;101376.88;4995938;28;20050;-87
2022/05/14 06:37:46;;;;;;;5.90;2.95;;;;;;;23.48;51.52;101375.16;4994329;28;20046;-86
2022/05/14 06:40:13;;;;;;;5.05;2.75;;;;;;;23.50;51.52;101375.88;4978997;28;20055;-86
2022/05/14 06:42:41;;;;;;;5.90;3.15;;;;;;;23.50;51.53;101380.41;4996460;28;20046;-87
2022/05/14 06:45:09;;;;;;;7.97;2.85;;;;;;;23.50;51.47;101381.28;4994498;28;20388;-87
2022/05/14 06:47:37;;;;;;;5.95;3.13;;;;;;;23.50;51.55;101380.41;4994334;28;20070;-88
2022/05/14 06:50:06;;;;;;;5.18;2.72;;;;;;;23.51;51.55;101384.84;4996353;28;20394;-87
2022/05/14 06:52:34;;;;;;;8.23;3.25;;;;;;;23.51;51.60;101379.44;4997310;28;20046;-88
2022/05/14 06:55:02;;;;;;;4.63;2.67;;;;;;;23.50;51.45;101375.00;4997491;28;20047;-86
2022/05/14 06:57:31;;;;;;;3.30;2.70;;;;;;;23.51;51.63;101390.25;4997461;28;20390;-87
2022/05/14 06:59:59;;;;;;;5.60;2.75;;;;;;;23.51;51.55;101387.56;4997056;28;20047;-86
2022/05/14 07:02:28;;;;;;;5.88;2.70;;;;;;;23.51;51.24;101384.84;4997775;28;20518;-86
2022/05/14 07:07:43;;;;;;;5.60;2.75;;;;;;;23.51;51.53;101380.28;4997370;28;20047;-86
2022/05/14 07:10:10;;;;;;;6.78;3.30;;;;;;;23.52;51.41;101378.44;4997267;28;20051;-86
2022/05/14 07:12:38;;;;;;;3.90;2.80;;;;;;;23.52;51.49;101387.41;4996922;28;20046;-86
2022/05/14 07:15:07;;;;;;;3.75;2.42;;;;;;;23.53;51.70;101380.13;4996480;28;20399;-85
2022/05/14 07:17:35;;;;;;;7.40;2.92;;;;;;;23.51;51.66;101385.69;4996561;28;20055;-85
2022/05/14 07:20:02;;;;;;;4.95;3.03;;;;;;;23.53;51.36;101383.69;4997084;28;20506;-85
2022/05/14 07:22:30;;;;;;;5.00;3.03;;;;;;;23.53;51.43;101391.78;4995503;28;20047;-84
2022/05/14 07:24:59;;;;;;;4.30;2.92;;;;;;;23.52;51.84;101382.00;4995076;28;20058;-88
2022/05/14 07:27:26;;;;;;;4.22;2.58;;;;;;;23.54;51.61;101388.13;4994758;28;20490;-88
2022/05/14 07:29:54;;;;;;;4.93;3.08;;;;;;;23.54;51.29;101377.31;4994658;28;20422;-85
2022/05/14 07:32:22;;;;;;;4.25;3.10;;;;;;;23.55;51.00;101384.41;4995199;28;20057;-84
2022/05/14 07:34:49;;;;;;;4.38;3.20;;;;;;;23.56;51.17;101375.28;4994387;28;20379;-85
2022/05/14 07:37:33;;;;;;;4.43;2.80;;;;;;;23.56;51.19;101380.69;4994474;28;20504;-86
2022/05/14 07:40:05;;;;;;;4.53;2.80;;;;;;;23.57;50.84;101379.69;4993935;28;20050;-86
2022/05/14 07:42:41;;;;;;;4.95;3.08;;;;;;;23.58;51.18;101380.56;4997420;28;20050;-85
2022/05/14 07:45:14;;;;;;;3.83;3.15;;;;;;;23.59;51.25;101374.16;4997034;28;20049;-85
2022/05/14 07:47:44;;;;;;;5.72;3.30;;;;;;;23.59;51.38;101377.72;4995065;28;20061;-87
2022/05/14 07:50:12;;;;;;;4.57;3.10;;;;;;;23.59;51.35;101374.16;4996693;28;20050;-92
2022/05/14 07:52:41;;;;;;;4.25;2.75;;;;;;;23.60;51.25;101371.28;4996649;28;20058;-85
2022/05/14 07:55:10;;;;;;;4.38;2.67;;;;;;;23.60;51.36;101370.44;4995952;28;20050;-86
2022/05/14 07:57:38;;;;;;;5.00;3.08;;;;;;;23.61;51.67;101370.28;4993798;28;20058;-84
2022/05/14 08:00:06;;;;;;;6.53;3.17;;;;;;;23.62;51.63;101376.56;4994100;28;20054;-85
2022/05/14 08:02:41;;;;;;;5.30;2.75;;;;;;;23.64;51.89;101370.00;4999533;28;20058;-87
2022/05/14 08:05:09;;;;;;;5.50;3.38;;;;;;;23.65;51.93;101368.16;4995333;28;20042;-87
2022/05/14 08:07:38;;;;;;;5.20;3.45;;;;;;;23.66;52.13;101362.66;4995465;28;20047;-83
2022/05/14 08:10:08;;;;;;;4.47;3.03;;;;;;;23.69;51.80;101365.03;4997189;28;20042;-85
2022/05/14 08:12:39;;;;;;;5.55;3.17;;;;;;;23.71;51.95;101364.06;4995098;28;20446;-82
2022/05/14 08:15:09;;;;;;;4.80;3.00;;;;;;;23.71;51.67;101370.31;4995891;28;20057;-86
2022/05/14 08:17:37;;;;;;;4.68;3.05;;;;;;;23.71;51.74;101361.34;4995746;28;20042;-87
2022/05/14 08:20:06;;;;;;;4.55;3.08;;;;;;;23.72;51.68;101368.44;4996525;28;20046;-87
2022/05/14 08:25:20;;;;;;;4.30;3.60;;;;;;;23.74;52.14;101361.03;4996000;28;20053;-85
2022/05/14 08:27:48;;;;;;;6.18;3.47;;;;;;;23.73;51.94;101367.44;4995659;28;20042;-84
2022/05/14 08:30:17;;;;;;;6.22;3.97;;;;;;;23.74;51.40;101358.31;4994614;28;20057;-84
2022/05/14 08:32:45;;;;;;;10.15;4.88;;;;;;;23.73;50.34;101356.63;4995412;28;20046;-83
2022/05/14 08:35:15;;;;;;;6.97;4.70;;;;;;;23.68;49.91;101355.22;4995216;28;20378;-81
2022/05/14 08:37:44;;;;;;;6.72;5.47;;;;;;;23.66;49.22;101359.09;4994402;28;20525;-85
2022/05/14 08:40:19;;;;;;;9.07;5.78;;;;;;;23.65;49.51;101363.63;4994395;28;20047;-84
2022/05/14 08:43:01;;;;;;;11.77;5.57;;;;;;;23.65;48.67;101360.03;4994292;28;20505;-86
2022/05/14 08:45:32;;;;;;;10.55;5.47;;;;;;;23.63;49.16;101359.34;4997603;28;20054;-84
2022/05/14 08:48:15;;;;;;;7.35;4.95;;;;;;;23.61;48.59;101362.19;4998066;28;20406;-86
2022/05/14 08:50:49;;;;;;;10.38;5.78;;;;;;;23.63;48.91;101365.59;4999875;28;20050;-87
2022/05/14 08:53:22;;;;;;;8.88;4.95;;;;;;;23.61;48.54;101356.78;4999287;28;20057;-89
2022/05/14 08:55:58;;;;;;;7.65;4.68;;;;;;;23.61;48.76;101364.88;4998189;28;20046;-90
2022/05/14 08:59:02;;;;;;;6.75;4.30;;;;;;;23.62;49.07;101352.25;5000460;28;20042;-89
2022/05/14 09:01:33;;;;;;;5.88;4.80;;;;;;;23.62;49.37;101360.34;4999388;28;20061;-86
2022/05/14 09:04:01;;;;;;;8.57;4.82;;;;;;;23.62;48.67;101369.31;5001589;28;20050;-87
2022/05/14 09:06:28;;;;;;;8.15;5.28;;;;;;;23.62;48.39;101366.63;4999141;28;20402;-88
2022/05/14 09:08:56;;;;;;;7.85;5.25;;;;;;;23.62;48.72;101361.22;4998690;28;20474;-84
2022/05/14 09:11:29;;;;;;;6.50;4.85;;;;;;;23.64;48.52;101366.44;5000523;28;20061;-87
2022/05/14 09:13:59;;;;;;;6.63;4.97;;;;;;;23.63;47.20;101365.59;5003088;28;20045;-88
2022/05/14 09:16:30;;;;;;;11.77;5.95;;;;;;;23.63;46.98;101360.19;4999629;28;20053;-87
2022/05/14 09:18:58;;;;;;;9.90;5.35;;;;;;;23.63;46.68;101356.66;4997572;28;20057;-87
2022/05/14 09:21:28;;;;;;;9.00;4.50;;;;;;;23.65;47.32;101352.81;4999518;28;20046;-90
2022/05/14 09:24:00;;;;;;;7.82;4.90;;;;;;;23.65;47.43;101363.63;4998276;28;20054;-86
2022/05/14 09:26:37;;;;;;;8.70;4.53;;;;;;;23.65;48.57;101354.63;4998410;28;20054;-89
2022/05/14 09:29:29;;;;;;;6.85;4.43;;;;;;;23.66;48.54;101365.34;4998316;28;20062;-90
2022/05/14 09:31:59;;;;;;;6.28;5.30;;;;;;;23.71;49.25;101358.66;4999678;28;20076;-91
2022/05/14 09:34:48;;;;;;;9.30;4.47;;;;;;;23.75;49.10;101350.09;4995562;28;20070;-86
2022/05/14 09:37:36;;;;;;;5.65;3.70;;;;;;;23.76;49.29;101348.22;5010416;28;20137;-87
2022/05/14 09:40:28;;;;;;;5.68;4.18;;;;;;;23.76;49.32;101356.34;4998707;28;20478;-84
2022/05/14 09:43:16;;;;;;;6.90;4.10;;;;;;;23.76;49.21;101354.50;4998740;28;20043;-81
2022/05/14 09:46:00;;;;;;;6.63;4.75;;;;;;;23.79;49.55;101356.06;4976737;28;20160;-83
2022/05/14 09:48:48;;;;;;;7.15;4.22;;;;;;;23.81;49.59;101343.22;4976304;28;20051;-87
2022/05/14 09:51:35;;;;;;;8.35;4.35;;;;;;;23.82;50.04;101345.78;4976472;28;20066;-78
2022/05/14 09:54:18;;;;;;;14.57;4.85;;;;;;;23.86;50.61;101343.63;4975778;28;20442;-77
2022/05/14 09:57:04;;;;;;;8.93;4.22;;;;;;;23.89;50.34;101348.72;4972028;28;20062;-81
2022/05/14 09:59:52;;;;;;;6.60;3.95;;;;;;;23.90;50.64;101342.31;4975229;28;20042;-83
2022/05/14 10:02:36;;;;;;;13.95;4.80;;;;;;;23.91;50.74;101335.94;4958799;28;20050;-82
2022/05/14 10:05:34;;;;;;;9.60;3.78;;;;;;;23.92;50.53;101337.63;4975125;28;20050;-82
2022/05/14 10:08:26;;;;;;;5.85;3.97;;;;;;;23.92;50.73;101333.06;4972778;28;20050;-77
2022/05/14 10:11:09;;;;;;;10.70;4.18;;;;;;;23.92;50.31;101326.81;4975469;28;20427;-77
2022/05/14 10:13:55;;;;;;;;;;;;;;;23.93;50.52;101331.22;4975698;28;20066;-77
2022/05/14 10:16:36;;;;;;;7.35;3.95;;;;;;;23.92;50.48;101333.06;4975643;28;19929;-77
2022/05/14 10:19:13;;;;;;;7.50;3.90;;;;;;;23.92;50.80;101327.66;4975322;28;20050;-77
2022/05/14 10:21:56;;;;;;;9.63;4.15;;;;;;;23.93;54.08;101321.25;4975750;28;20054;-77
2022/05/14 10:27:40;;;;;;;8.07;4.10;;;;;;;23.93;52.57;101320.41;4996857;28;20046;-77
2022/05/14 10:30:20;;;;;;;10.93;4.68;;;;;;;23.93;52.61;101320.41;4976788;28;20047;-78
2022/05/14 10:32:52;;;;;;;6.43;4.15;;;;;;;23.93;52.55;101323.09;4976511;28;20054;-78
2022/05/14 10:35:30;;;;;;;6.55;4.10;;;;;;;23.92;52.82;101316.00;4976326;28;20050;-77
2022/05/14 10:38:14;;;;;;;7.97;4.38;;;;;;;23.94;52.29;101316.69;4977601;28;20057;-81
2022/05/14 10:40:51;;;;;;;6.35;4.07;;;;;;;23.93;52.43;101313.13;4978285;28;20065;-82
2022/05/14 10:43:43;;;;;;;8.27;4.90;;;;;;;23.95;52.69;101314.84;4978212;28;20047;-81
2022/05/14 10:46:13;;;;;;;7.45;4.10;;;;;;;23.94;52.67;101311.28;4976729;28;20047;-78
2022/05/14 10:49:17;;;;;;;6.65;4.22;;;;;;;23.96;52.43;101305.72;4975961;28;20049;-82
2022/05/14 10:51:46;;;;;;;;;;;;;;;23.96;52.79;101305.72;4977317;28;20082;-81
2022/05/14 10:54:23;;;;;;;10.20;4.20;;;;;;;23.96;52.44;101305.72;4995890;28;19922;-83
2022/05/14 10:56:59;;;;;;;8.27;4.05;;;;;;;23.97;52.51;101299.31;4997737;28;20057;-78
2022/05/14 10:59:46;;;;;;;9.43;4.88;;;;;;;23.97;52.45;101308.28;4994471;28;20524;-81
2022/05/14 11:02:25;;;;;;;8.05;4.65;;;;;;;23.98;52.35;101301.84;4996299;28;20050;-79
2022/05/14 11:04:53;;;;;;;5.90;3.38;;;;;;;23.99;52.67;101298.16;4995632;28;20043;-81
2022/05/14 11:07:34;;;;;;;17.27;4.95;;;;;;;23.99;52.57;101298.16;4995426;28;20050;-81
2022/05/14 11:10:22;;;;;;;9.02;4.88;;;;;;;24.00;52.32;101296.31;4994300;28;20042;-81
2022/05/14 11:12:50;;;;;;;9.25;5.07;;;;;;;24.00;52.29;101293.59;4996675;28;20073;-83
2022/05/14 11:15:29;;;;;;;6.80;4.38;;;;;;;24.00;52.59;101288.19;4996103;28;20515;-83
2022/05/14 11:18:13;;;;;;;6.72;4.03;;;;;;;24.01;52.44;101292.59;4995264;28;20053;-84
2022/05/14 11:20:54;;;;;;;8.93;4.00;;;;;;;23.99;52.19;101292.75;4994059;28;20046;-83
2022/05/14 11:23:23;;;;;;;8.48;4.53;;;;;;;24.00;52.34;101288.19;4995115;28;20046;-83
2022/05/14 11:26:09;;;;;;;6.97;4.68;;;;;;;23.99;52.68;101291.91;4996510;28;20050;-84
2022/05/14 11:28:37;;;;;;;5.90;4.18;;;;;;;23.99;52.33;101284.66;4997585;28;20062;-84
2022/05/14 11:31:16;;;;;;;7.63;4.85;;;;;;;23.98;52.42;101288.34;4994688;28;20059;-85
2022/05/14 11:33:45;;;;;;;7.40;4.80;;;;;;;23.98;52.43;101277.50;4996534;28;20057;-85
2022/05/14 11:36:12;;;;;;;8.10;4.57;;;;;;;23.99;52.74;101278.41;4996216;28;20101;-84
2022/05/14 11:38:49;;;;;;;7.80;4.07;;;;;;;23.99;52.88;101270.28;4996272;28;20050;-84
2022/05/14 11:41:25;;;;;;;6.32;4.05;;;;;;;24.01;52.82;101270.97;4993163;28;20046;-83
2022/05/14 11:43:54;;;;;;;6.38;3.90;;;;;;;24.01;52.74;101271.81;4994169;28;20046;-83
2022/05/14 11:46:44;;;;;;;9.15;5.10;;;;;;;24.02;52.61;101269.94;4995115;28;20061;-81
2022/05/14 11:49:28;;;;;;;6.25;4.68;;;;;;;24.03;52.98;101263.56;4995591;28;20054;-85
2022/05/14 11:52:44;;;;;;;11.85;4.70;;;;;;;24.04;53.15;101259.84;4998408;28;20072;-86
2022/05/14 11:55:23;;;;;;;7.18;5.03;;;;;;;24.05;53.29;101256.97;5015031;28;20529;-84
2022/05/14 11:57:58;;;;;;;6.03;4.43;;;;;;;24.06;53.01;101255.97;4997508;28;20050;-85
2022/05/14 12:00:29;;;;;;;10.13;5.25;;;;;;;24.07;53.15;101262.25;5013358;28;20062;-83
2022/05/14 12:03:05;;;;;;;6.30;4.85;;;;;;;24.07;53.09;101260.41;4996079;28;20489;-81